CheckWX is a tool to help pilots better visualize weather data.  It is not intended as a substitute for an official pre-flight weather briefing.

06:45:19 UTC

EGPF METAR
Glasgow International Airport
Glasgow, United Kingdom
Current

25 mins ago

EGPF 210620Z AUTO 28005KT 250V330 9999 NCD 10/07 Q1018
Observed
May-21 @ 06:20 UTC
Wind
  • 280° at 5 KTS
Visibility
10,000+ meters
Flight Rules
VFR
Cloud Levels
  • Clear skies
Temperature
10°C / 50°F
Dewpoint
C / 45°F
Humidity
82%
Altimeter
30.06" Hg
Pressure
1017.92 hPa
Previous

55 mins ago

EGPF 210550Z AUTO 21003KT 9999 NCD 09/07 Q1017
Observed
May-21 @ 05:50 UTC
Wind
  • 210° at 3 KTS
Visibility
10,000+ meters
Flight Rules
VFR
Cloud Levels
  • Clear skies
Temperature
C / 48°F
Dewpoint
C / 45°F
Humidity
87%
Altimeter
30.03" Hg
Pressure
1016.92 hPa
Previous

1 hour ago

EGPF 210520Z AUTO VRB01KT 9999 NCD 07/06 Q1017
Observed
May-21 @ 05:20 UTC
Wind
  • Variable at 1 KTS
Visibility
10,000+ meters
Flight Rules
VFR
Cloud Levels
  • Clear skies
Temperature
C / 45°F
Dewpoint
C / 43°F
Humidity
93%
Altimeter
30.03" Hg
Pressure
1016.92 hPa